createdAt,value
2023-03-17T00:01:56.001Z,57.62
2023-03-17T00:04:25.087Z,56.26
2023-03-17T00:06:52.959Z,57.53
2023-03-17T00:09:20.638Z,56.40
2023-03-17T00:11:47.887Z,56.30
2023-03-17T00:14:14.669Z,57.55
2023-03-17T00:16:44.453Z,57.74
2023-03-17T00:19:21.869Z,57.23
2023-03-17T00:21:49.529Z,56.84
2023-03-17T00:24:16.372Z,57.13
2023-03-17T00:26:43.776Z,57.19
2023-03-17T00:29:10.650Z,57.10
2023-03-17T00:31:39.215Z,57.48
2023-03-17T00:34:08.033Z,57.63
2023-03-17T00:36:35.593Z,57.66
2023-03-17T00:39:02.234Z,57.26
2023-03-17T00:41:29.578Z,57.48
2023-03-17T00:43:57.535Z,57.18
2023-03-17T00:46:28.907Z,58.01
2023-03-17T00:48:55.683Z,57.82
2023-03-17T00:51:23.407Z,57.75
2023-03-17T00:53:50.914Z,58.06
2023-03-17T00:56:20.689Z,57.32
2023-03-17T00:58:48.515Z,57.86
2023-03-17T01:01:15.987Z,57.78
2023-03-17T01:03:42.699Z,57.25
2023-03-17T01:06:12.529Z,57.30
2023-03-17T01:08:40.954Z,58.50
2023-03-17T01:11:14.778Z,57.63
2023-03-17T01:13:41.944Z,57.98
2023-03-17T01:19:05.847Z,58.25
2023-03-17T01:21:32.670Z,57.24
2023-03-17T01:24:00.522Z,58.54
2023-03-17T01:26:27.426Z,58.43
2023-03-17T01:28:54.924Z,58.64
2023-03-17T01:31:23.110Z,57.84
2023-03-17T01:33:49.876Z,58.57
2023-03-17T01:36:17.852Z,58.97
2023-03-17T01:38:48.271Z,59.71
2023-03-17T01:41:14.924Z,58.99
2023-03-17T01:43:41.719Z,58.85
2023-03-17T01:46:17.184Z,58.85
2023-03-17T01:48:55.835Z,59.48
2023-03-17T01:51:32.127Z,59.01
2023-03-17T01:54:01.560Z,58.89
2023-03-17T01:56:29.018Z,58.63
2023-03-17T01:58:58.316Z,59.11
2023-03-17T02:01:30.742Z,59.18
2023-03-17T02:03:58.588Z,59.09
2023-03-17T02:06:26.367Z,58.53
2023-03-17T02:08:53.817Z,58.89
2023-03-17T02:11:21.222Z,59.02
2023-03-17T02:13:48.098Z,59.07
2023-03-17T02:16:16.428Z,59.24
2023-03-17T02:18:44.093Z,58.47
2023-03-17T02:21:31.906Z,60.02
2023-03-17T02:24:02.496Z,59.26
2023-03-17T02:26:33.172Z,59.05
2023-03-17T02:28:59.753Z,58.81
2023-03-17T02:31:27.488Z,59.09
2023-03-17T02:33:54.695Z,59.13
2023-03-17T02:36:22.068Z,58.63
2023-03-17T02:38:49.171Z,59.86
2023-03-17T02:41:15.874Z,59.62
2023-03-17T02:43:42.960Z,60.10
2023-03-17T02:46:09.840Z,60.70
2023-03-17T02:48:37.499Z,59.55
2023-03-17T02:51:04.922Z,59.78
2023-03-17T02:53:31.588Z,59.78
2023-03-17T02:55:58.503Z,59.84
2023-03-17T02:58:25.187Z,59.38
2023-03-17T03:00:51.841Z,58.85
2023-03-17T03:03:18.510Z,59.42
2023-03-17T03:05:45.576Z,58.84
2023-03-17T03:08:12.292Z,59.71
2023-03-17T03:13:33.352Z,59.65
2023-03-17T03:16:00.546Z,59.94
2023-03-17T03:18:27.340Z,59.46
2023-03-17T03:23:47.960Z,59.61
2023-03-17T03:26:14.701Z,59.33
2023-03-17T03:28:41.708Z,60.29
2023-03-17T03:31:08.740Z,59.33
2023-03-17T03:33:35.671Z,59.61
2023-03-17T03:36:02.548Z,59.76
2023-03-17T03:38:29.423Z,59.34
2023-03-17T03:40:56.146Z,59.74
2023-03-17T03:43:24.066Z,60.61
2023-03-17T03:45:51.926Z,59.80
2023-03-17T03:48:19.131Z,59.80
2023-03-17T03:50:50.820Z,60.20
2023-03-17T03:53:17.635Z,60.58
2023-03-17T03:55:44.176Z,59.48
2023-03-17T03:58:11.405Z,61.10
2023-03-17T04:00:38.004Z,60.41
2023-03-17T04:03:04.655Z,60.33
2023-03-17T04:05:31.242Z,60.46
2023-03-17T04:07:57.673Z,61.65
2023-03-17T04:10:24.204Z,60.53
2023-03-17T04:12:51.220Z,60.29
2023-03-17T04:15:19.880Z,59.89
2023-03-17T04:17:47.556Z,59.84
2023-03-17T04:20:16.011Z,59.82
2023-03-17T04:22:43.056Z,60.72
2023-03-17T04:25:11.580Z,60.71
2023-03-17T04:27:38.303Z,60.48
2023-03-17T04:30:05.852Z,60.72
2023-03-17T04:32:32.508Z,60.30
2023-03-17T04:34:59.192Z,60.89
2023-03-17T04:37:26.443Z,60.29
2023-03-17T04:39:53.411Z,60.56
2023-03-17T04:42:19.982Z,60.18
2023-03-17T04:44:47.114Z,60.91
2023-03-17T04:47:13.708Z,60.28
2023-03-17T04:49:40.501Z,60.66
2023-03-17T04:52:07.527Z,60.60
2023-03-17T04:54:34.184Z,60.46
2023-03-17T04:57:00.750Z,61.48
2023-03-17T04:59:27.346Z,60.36
2023-03-17T05:01:54.121Z,61.93
2023-03-17T05:04:31.259Z,60.54
2023-03-17T05:06:58.482Z,60.80
2023-03-17T05:09:26.711Z,61.02
2023-03-17T05:11:53.236Z,60.97
2023-03-17T05:14:20.198Z,61.25
2023-03-17T05:16:48.439Z,61.09
2023-03-17T05:19:15.423Z,61.29
2023-03-17T05:21:42.688Z,60.70
2023-03-17T05:24:09.578Z,61.36
2023-03-17T05:26:36.424Z,61.24
2023-03-17T05:29:03.024Z,61.26
2023-03-17T05:31:31.217Z,61.41
2023-03-17T05:33:58.825Z,60.80
2023-03-17T05:36:25.343Z,60.92
2023-03-17T05:38:52.331Z,61.51
2023-03-17T05:41:19.090Z,60.65
2023-03-17T05:43:46.143Z,60.76
2023-03-17T05:46:13.125Z,60.77
2023-03-17T05:48:39.619Z,60.85
2023-03-17T05:51:06.383Z,61.07
2023-03-17T05:53:33.111Z,61.16
2023-03-17T05:55:59.609Z,60.93
2023-03-17T05:58:26.702Z,61.20
2023-03-17T06:00:53.666Z,61.25
2023-03-17T06:03:21.481Z,61.15
2023-03-17T06:05:48.450Z,61.32
2023-03-17T06:08:15.296Z,60.75
2023-03-17T06:10:43.135Z,60.68
2023-03-17T06:13:09.771Z,61.32
2023-03-17T06:15:36.936Z,61.67
2023-03-17T06:18:05.211Z,61.42
2023-03-17T06:20:38.133Z,61.18
2023-03-17T06:23:06.020Z,61.21
2023-03-17T06:25:35.577Z,61.35
2023-03-17T06:28:04.029Z,61.73
2023-03-17T06:30:33.181Z,62.09
2023-03-17T06:33:00.515Z,61.86
2023-03-17T06:35:27.587Z,61.68
2023-03-17T06:37:54.789Z,61.45
2023-03-17T06:40:21.434Z,62.27
2023-03-17T06:42:48.526Z,61.39
2023-03-17T06:45:16.069Z,61.57
2023-03-17T06:47:42.797Z,62.70
2023-03-17T06:50:11.564Z,61.74
2023-03-17T06:52:39.730Z,61.96
2023-03-17T06:55:07.810Z,61.78
2023-03-17T06:57:35.152Z,62.18
2023-03-17T07:00:01.935Z,62.80
2023-03-17T07:02:28.738Z,62.49
2023-03-17T07:04:57.963Z,63.21
2023-03-17T07:07:25.189Z,62.29
2023-03-17T07:09:52.792Z,63.20
2023-03-17T07:12:20.152Z,63.02
2023-03-17T07:14:46.869Z,62.86
2023-03-17T07:17:14.703Z,62.49
2023-03-17T07:19:42.372Z,62.71
2023-03-17T07:22:12.158Z,62.89
2023-03-17T07:24:39.788Z,62.73
2023-03-17T07:27:06.379Z,63.00
2023-03-17T07:29:34.090Z,62.77
2023-03-17T07:32:01.485Z,63.00
2023-03-17T07:34:28.416Z,62.95
2023-03-17T07:36:55.355Z,63.64
2023-03-17T07:39:22.000Z,63.64
2023-03-17T07:41:52.976Z,65.18
2023-03-17T07:44:19.810Z,64.41
2023-03-17T07:46:46.922Z,64.89
2023-03-17T07:49:14.057Z,66.25
2023-03-17T07:51:43.324Z,66.71
2023-03-17T07:54:14.819Z,66.54
2023-03-17T07:56:42.509Z,66.02
2023-03-17T07:59:11.067Z,66.03
2023-03-17T08:01:38.418Z,66.30
2023-03-17T08:04:05.919Z,66.33
2023-03-17T08:06:32.667Z,66.19
2023-03-17T08:08:59.731Z,66.05
2023-03-17T08:11:29.240Z,65.77
2023-03-17T08:13:56.137Z,66.17
2023-03-17T08:16:23.216Z,66.53
2023-03-17T08:18:50.372Z,66.02
2023-03-17T08:21:17.737Z,65.36
2023-03-17T08:23:44.632Z,64.84
2023-03-17T08:26:11.396Z,64.63
2023-03-17T08:28:38.293Z,64.20
2023-03-17T08:31:14.410Z,62.45
2023-03-17T08:33:42.551Z,62.88
2023-03-17T08:36:11.320Z,64.06
2023-03-17T08:38:39.611Z,64.19
2023-03-17T08:41:09.115Z,63.95
2023-03-17T08:43:37.421Z,63.66
2023-03-17T08:49:03.316Z,62.80
2023-03-17T08:52:02.935Z,61.81
2023-03-17T08:54:29.640Z,61.67
2023-03-17T08:56:57.641Z,59.02
2023-03-17T08:59:24.233Z,60.05
2023-03-17T09:03:28.630Z,61.25
2023-03-17T09:06:33.392Z,61.44
2023-03-17T09:09:00.461Z,61.10
2023-03-17T09:14:24.917Z,59.12
2023-03-17T09:16:52.279Z,57.74
2023-03-17T09:19:26.184Z,59.26
2023-03-17T09:21:58.954Z,60.63
2023-03-17T09:24:29.263Z,59.14
2023-03-17T09:27:00.103Z,59.16
2023-03-17T09:29:27.304Z,58.56
2023-03-17T09:31:57.020Z,57.98
2023-03-17T09:34:25.179Z,57.21
2023-03-17T09:36:53.991Z,57.73
2023-03-17T09:39:24.163Z,56.35
2023-03-17T09:42:06.717Z,58.68
2023-03-17T09:44:58.081Z,57.14
2023-03-17T09:47:43.056Z,58.04
2023-03-17T09:50:15.972Z,58.10
2023-03-17T09:52:43.238Z,57.87
2023-03-17T09:55:25.270Z,57.86
2023-03-17T09:57:54.356Z,57.92
2023-03-17T10:00:26.765Z,57.04
2023-03-17T10:02:55.040Z,57.23
2023-03-17T10:05:31.548Z,55.45
2023-03-17T10:08:30.063Z,56.08
2023-03-17T10:11:35.729Z,55.39
2023-03-17T10:14:05.361Z,56.08
2023-03-17T10:16:50.961Z,55.76
2023-03-17T10:19:32.666Z,55.32
2023-03-17T10:22:22.046Z,55.81
2023-03-17T10:24:54.892Z,55.15
2023-03-17T10:27:21.882Z,55.32
2023-03-17T10:29:48.869Z,54.93
2023-03-17T10:32:16.120Z,55.10
2023-03-17T10:34:43.851Z,54.75
2023-03-17T10:37:23.346Z,54.68
2023-03-17T10:39:56.259Z,54.89
2023-03-17T10:42:30.280Z,54.78
2023-03-17T10:45:01.979Z,54.32
2023-03-17T10:47:38.429Z,54.71
2023-03-17T10:50:25.389Z,54.38
2023-03-17T10:53:00.755Z,53.67
2023-03-17T10:58:43.556Z,54.47
2023-03-17T11:01:20.200Z,54.44
2023-03-17T11:03:47.712Z,53.94
2023-03-17T11:06:19.376Z,54.30
2023-03-17T11:08:53.756Z,54.07
2023-03-17T11:11:26.310Z,54.21
2023-03-17T11:14:16.990Z,53.99
2023-03-17T11:16:57.595Z,53.38
2023-03-17T11:19:43.590Z,53.97
2023-03-17T11:22:15.120Z,53.74
2023-03-17T11:25:06.429Z,52.76
2023-03-17T11:27:36.139Z,53.10
2023-03-17T11:30:28.159Z,52.96
2023-03-17T11:33:11.162Z,52.73
2023-03-17T11:36:10.848Z,53.89
2023-03-17T11:39:00.593Z,53.68
2023-03-17T11:41:58.450Z,53.85
2023-03-17T11:44:56.795Z,53.86
2023-03-17T11:47:51.374Z,52.56
2023-03-17T11:53:57.812Z,52.75
2023-03-17T11:56:37.082Z,53.41
2023-03-17T11:59:11.973Z,53.15
2023-03-17T12:04:58.670Z,52.72
2023-03-17T12:07:31.609Z,52.69
2023-03-17T12:10:12.658Z,52.35
2023-03-17T12:12:47.405Z,53.08
2023-03-17T12:15:29.792Z,53.15
2023-03-17T12:18:04.413Z,52.99
2023-03-17T12:23:52.861Z,52.36
2023-03-17T12:26:41.440Z,51.79
2023-03-17T12:29:19.318Z,51.54
2023-03-17T12:31:52.555Z,51.91
2023-03-17T12:34:28.694Z,51.85
2023-03-17T12:36:55.738Z,52.25
2023-03-17T12:39:33.631Z,51.89
2023-03-17T12:42:22.849Z,51.20
2023-03-17T12:45:27.531Z,51.20
2023-03-17T12:48:21.956Z,51.81
2023-03-17T12:51:17.642Z,52.17
2023-03-17T12:53:49.747Z,52.30
2023-03-17T12:56:30.468Z,51.17
2023-03-17T12:59:04.860Z,51.19
2023-03-17T13:01:38.970Z,52.02
2023-03-17T13:04:18.195Z,50.69
2023-03-17T13:06:48.302Z,51.90
2023-03-17T13:09:33.196Z,51.55
2023-03-17T13:12:01.848Z,52.04
2023-03-17T13:14:45.877Z,51.12
2023-03-17T13:17:25.928Z,51.87
2023-03-17T13:20:15.112Z,51.40
2023-03-17T13:23:10.357Z,51.42
2023-03-17T13:25:42.969Z,51.37
2023-03-17T13:28:18.302Z,51.30
2023-03-17T13:30:59.743Z,50.96
2023-03-17T13:33:32.910Z,51.29
2023-03-17T13:36:26.677Z,51.93
2023-03-17T13:39:18.845Z,50.71
2023-03-17T13:42:05.553Z,51.13
2023-03-17T13:45:06.565Z,50.82
2023-03-17T13:47:36.165Z,51.53
2023-03-17T13:50:16.327Z,51.24
2023-03-17T13:52:47.340Z,51.21
2023-03-17T13:55:23.419Z,51.11
2023-03-17T13:58:17.970Z,50.77
2023-03-17T14:00:53.424Z,51.13
2023-03-17T14:03:34.166Z,50.99
2023-03-17T14:06:04.870Z,51.38
2023-03-17T14:08:36.394Z,51.12
2023-03-17T14:20:53.312Z,51.15
2023-03-17T14:23:21.426Z,50.92
2023-03-17T14:25:49.330Z,50.64
2023-03-17T14:28:17.831Z,50.43
2023-03-17T14:30:55.636Z,50.01
2023-03-17T14:33:41.277Z,50.25
2023-03-17T14:36:14.253Z,50.64
2023-03-17T14:38:49.268Z,50.28
2023-03-17T14:41:27.531Z,49.99
2023-03-17T14:43:58.520Z,50.44
2023-03-17T14:46:27.585Z,50.37
2023-03-17T14:49:00.962Z,50.06
2023-03-17T14:51:32.775Z,50.48
2023-03-17T14:54:01.330Z,50.37
2023-03-17T14:56:41.028Z,50.33
2023-03-17T14:59:16.060Z,49.99
2023-03-17T15:01:47.553Z,50.11
2023-03-17T15:04:25.106Z,49.99
2023-03-17T15:06:59.438Z,49.34
2023-03-17T15:09:32.034Z,49.95
2023-03-17T15:12:05.194Z,49.87
2023-03-17T15:14:34.193Z,49.68
2023-03-17T15:17:06.481Z,50.00
2023-03-17T15:19:43.504Z,49.66
2023-03-17T15:22:29.746Z,49.89
2023-03-17T15:25:03.788Z,49.33
2023-03-17T15:27:31.765Z,49.88
2023-03-17T15:29:58.697Z,49.60
2023-03-17T15:32:26.930Z,49.62
2023-03-17T15:34:57.088Z,49.58
2023-03-17T15:37:26.786Z,49.63
2023-03-17T15:39:55.201Z,49.41
2023-03-17T15:42:26.572Z,49.40
2023-03-17T15:44:53.748Z,49.39
2023-03-17T15:47:22.828Z,49.56
2023-03-17T15:49:51.172Z,49.62
2023-03-17T15:52:26.837Z,49.56
2023-03-17T15:54:58.215Z,49.81
2023-03-17T15:57:26.319Z,49.45
2023-03-17T15:59:53.281Z,49.50
2023-03-17T16:05:21.200Z,49.27
2023-03-17T16:07:48.650Z,49.33
2023-03-17T16:10:18.466Z,49.56
2023-03-17T16:12:45.279Z,49.44
2023-03-17T16:15:23.005Z,48.87
2023-03-17T16:17:54.380Z,49.20
2023-03-17T16:20:27.498Z,49.24
2023-03-17T16:22:58.651Z,49.36
2023-03-17T16:25:29.391Z,49.10
2023-03-17T16:27:58.020Z,49.30
2023-03-17T16:30:27.351Z,49.59
2023-03-17T16:32:55.166Z,49.67
2023-03-17T16:35:25.646Z,49.50
2023-03-17T16:37:54.274Z,49.83
2023-03-17T16:43:30.065Z,49.68
2023-03-17T16:46:02.568Z,49.81
2023-03-17T16:48:29.401Z,49.79
2023-03-17T16:53:51.458Z,49.88
2023-03-17T16:56:21.412Z,50.10
2023-03-17T16:58:49.291Z,49.94
2023-03-17T17:01:19.532Z,50.12
2023-03-17T17:03:46.825Z,50.01
2023-03-17T17:06:19.909Z,50.39
2023-03-17T17:08:48.223Z,50.09
2023-03-17T17:14:10.770Z,50.56
2023-03-17T17:16:40.020Z,50.45
2023-03-17T17:19:14.591Z,50.67
2023-03-17T17:21:41.216Z,50.77
2023-03-17T17:24:11.413Z,50.89
2023-03-17T17:26:38.966Z,51.04
2023-03-17T17:29:05.894Z,51.24
2023-03-17T17:31:32.450Z,51.46
2023-03-17T17:33:59.415Z,51.10
2023-03-17T17:36:26.839Z,51.40
2023-03-17T17:38:53.535Z,51.67
2023-03-17T17:41:22.049Z,51.89
2023-03-17T17:43:50.091Z,52.19
2023-03-17T17:46:22.443Z,52.67
2023-03-17T17:48:49.711Z,52.51
2023-03-17T17:51:16.477Z,52.08
2023-03-17T17:53:43.370Z,52.38
2023-03-17T17:56:17.860Z,53.26
2023-03-17T17:58:45.347Z,52.59
2023-03-17T18:01:14.010Z,52.50
2023-03-17T18:03:42.792Z,52.22
2023-03-17T18:06:09.901Z,52.75
2023-03-17T18:08:36.906Z,52.53
2023-03-17T18:11:03.650Z,52.82
2023-03-17T18:13:30.445Z,52.59
2023-03-17T18:15:57.303Z,52.78
2023-03-17T18:18:23.931Z,52.44
2023-03-17T18:20:50.983Z,52.61
2023-03-17T18:23:17.805Z,52.49
2023-03-17T18:25:44.311Z,52.73
2023-03-17T18:28:11.651Z,52.50
2023-03-17T18:30:40.916Z,52.46
2023-03-17T18:33:15.142Z,53.24
2023-03-17T18:35:43.751Z,53.03
2023-03-17T18:38:10.282Z,53.26
2023-03-17T18:40:37.570Z,53.16
2023-03-17T18:43:04.963Z,53.00
2023-03-17T18:45:31.601Z,53.24
2023-03-17T18:47:58.330Z,53.07
2023-03-17T18:50:24.984Z,53.32
2023-03-17T18:52:51.643Z,53.70
2023-03-17T18:55:18.516Z,53.13
2023-03-17T18:57:46.574Z,53.73
2023-03-17T19:00:16.521Z,53.48
2023-03-17T19:02:43.142Z,53.40
2023-03-17T19:05:10.550Z,53.33
2023-03-17T19:07:40.135Z,53.50
2023-03-17T19:10:08.073Z,53.73
2023-03-17T19:12:34.682Z,53.64
2023-03-17T19:15:01.912Z,53.88
2023-03-17T19:17:28.583Z,53.68
2023-03-17T19:19:55.322Z,54.19
2023-03-17T19:22:22.100Z,54.09
2023-03-17T19:24:50.296Z,54.10
2023-03-17T19:27:17.908Z,54.24
2023-03-17T19:29:45.165Z,53.85
2023-03-17T19:32:12.052Z,54.19
2023-03-17T19:34:38.669Z,54.12
2023-03-17T19:37:05.701Z,54.17
2023-03-17T19:39:33.613Z,53.97
2023-03-17T19:42:00.210Z,54.42
2023-03-17T19:44:27.467Z,54.64
2023-03-17T19:46:54.022Z,54.32
2023-03-17T19:49:21.293Z,54.40
2023-03-17T19:51:49.335Z,54.30
2023-03-17T19:54:16.545Z,54.50
2023-03-17T19:56:43.176Z,54.10
2023-03-17T19:59:09.728Z,54.72
2023-03-17T20:01:38.052Z,54.25
2023-03-17T20:04:06.987Z,54.31
2023-03-17T20:06:34.742Z,54.53
2023-03-17T20:09:04.191Z,54.63
2023-03-17T20:11:34.040Z,54.29
2023-03-17T20:14:04.726Z,54.23
2023-03-17T20:16:33.819Z,54.41
2023-03-17T20:19:01.257Z,54.61
2023-03-17T20:21:27.930Z,54.97
2023-03-17T20:23:54.776Z,54.87
2023-03-17T20:26:21.394Z,54.98
2023-03-17T20:28:47.977Z,54.51
2023-03-17T20:31:14.696Z,54.92
2023-03-17T20:33:42.219Z,54.45
2023-03-17T20:36:09.383Z,54.77
2023-03-17T20:38:39.045Z,54.36
2023-03-17T20:41:07.679Z,54.34
2023-03-17T20:43:36.490Z,54.44
2023-03-17T20:46:09.289Z,54.31
2023-03-17T20:48:37.350Z,55.05
2023-03-17T20:51:06.422Z,54.61
2023-03-17T20:53:34.375Z,55.03
2023-03-17T20:56:01.017Z,54.94
2023-03-17T20:58:27.811Z,54.53
2023-03-17T21:00:55.392Z,55.01
2023-03-17T21:03:22.264Z,54.87
2023-03-17T21:05:49.128Z,54.55
2023-03-17T21:08:16.612Z,54.31
2023-03-17T21:10:43.198Z,54.35
2023-03-17T21:13:10.218Z,54.40
2023-03-17T21:15:36.782Z,54.10
2023-03-17T21:18:03.734Z,53.89
2023-03-17T21:20:30.687Z,53.75
2023-03-17T21:22:57.958Z,53.99
2023-03-17T21:25:24.815Z,54.63
2023-03-17T21:27:52.261Z,53.87
2023-03-17T21:30:19.217Z,54.02
2023-03-17T21:32:45.900Z,54.49
2023-03-17T21:35:12.786Z,53.93
2023-03-17T21:37:39.379Z,53.85
2023-03-17T21:40:07.046Z,54.23
2023-03-17T21:42:34.262Z,54.02
2023-03-17T21:45:01.040Z,53.90
2023-03-17T21:47:29.380Z,54.08
2023-03-17T21:49:56.631Z,54.19
2023-03-17T21:52:23.505Z,54.64
2023-03-17T21:54:51.027Z,55.16
2023-03-17T21:57:18.247Z,55.48
2023-03-17T21:59:45.685Z,54.35
2023-03-17T22:02:12.805Z,54.54
2023-03-17T22:04:41.652Z,54.58
2023-03-17T22:07:08.903Z,54.71
2023-03-17T22:09:36.127Z,54.80
2023-03-17T22:12:03.769Z,54.64
2023-03-17T22:14:31.351Z,54.41
2023-03-17T22:16:57.903Z,54.43
2023-03-17T22:19:24.865Z,54.74
2023-03-17T22:21:51.813Z,54.33
2023-03-17T22:24:19.115Z,54.54
2023-03-17T22:26:46.621Z,54.56
2023-03-17T22:29:14.039Z,54.33
2023-03-17T22:31:41.313Z,54.23
2023-03-17T22:34:09.916Z,53.94
2023-03-17T22:36:37.378Z,54.30
2023-03-17T22:39:06.909Z,54.63
2023-03-17T22:41:33.867Z,54.93
2023-03-17T22:44:00.566Z,54.87
2023-03-17T22:46:27.596Z,55.08
2023-03-17T22:48:54.275Z,54.47
2023-03-17T22:51:23.904Z,55.17
2023-03-17T22:53:51.862Z,55.19
2023-03-17T22:56:19.734Z,55.55
2023-03-17T22:58:47.407Z,55.07
2023-03-17T23:01:16.316Z,57.10
2023-03-17T23:03:43.935Z,57.03
2023-03-17T23:06:11.411Z,56.74
2023-03-17T23:08:39.669Z,57.26
2023-03-17T23:11:11.839Z,56.89
2023-03-17T23:13:41.646Z,56.69
2023-03-17T23:16:09.497Z,56.65
2023-03-17T23:18:36.104Z,56.76
2023-03-17T23:21:04.269Z,57.28
2023-03-17T23:23:31.494Z,56.94
2023-03-17T23:25:58.136Z,56.52
2023-03-17T23:28:25.036Z,56.72
2023-03-17T23:30:52.340Z,56.95
2023-03-17T23:33:21.602Z,57.16
2023-03-17T23:35:50.376Z,57.66
2023-03-17T23:38:21.915Z,57.85
2023-03-17T23:40:49.715Z,57.96
2023-03-17T23:43:16.533Z,58.92
2023-03-17T23:45:43.682Z,57.87
2023-03-17T23:48:11.153Z,58.37
2023-03-17T23:50:41.010Z,58.48
2023-03-17T23:53:07.667Z,57.73
2023-03-17T23:55:35.198Z,58.02
2023-03-17T23:58:02.084Z,57.46
